Time;durP1;ratioP1;P1;durP2;ratioP2;P2;SDS_P1;SDS_P2;PMS_P1;PMS_P2;Temp;Humidity;BMP_temperature;BMP_pressure;BME280_temperature;BME280_humidity;BME280_pressure;Samples;Min_cycle;Max_cycle;Signal;HPM_P1;HPM_P2
2022/06/27 00:00:59;;;;;;;13.10;10.33;;;;;;;21.76;93.52;99576.00;5069067;28;20438;-56
2022/06/27 00:03:27;;;;;;;15.80;12.07;;;;;;;21.75;93.76;99582.13;5069608;28;20191;-57
2022/06/27 00:05:54;;;;;;;12.50;11.40;;;;;;;21.75;93.86;99587.34;5069929;28;20191;-58
2022/06/27 00:08:21;;;;;;;17.63;11.73;;;;;;;21.74;94.03;99584.78;5070816;28;20222;-57
2022/06/27 00:10:48;;;;;;;12.63;11.30;;;;;;;21.71;94.41;99590.97;5073701;28;20199;-57
2022/06/27 00:13:15;;;;;;;15.63;11.67;;;;;;;21.75;94.43;99582.13;5072752;28;20932;-57
2022/06/27 00:15:42;;;;;;;16.63;10.73;;;;;;;21.80;93.65;99582.00;5073539;28;20202;-57
2022/06/27 00:18:08;;;;;;;12.20;10.50;;;;;;;21.81;93.55;99581.09;5073892;28;20562;-57
2022/06/27 00:20:37;;;;;;;15.07;10.93;;;;;;;21.77;94.12;99577.72;5059446;28;20191;-58
2022/06/27 00:23:04;;;;;;;16.03;10.93;;;;;;;21.69;94.48;99568.38;5073632;28;20670;-57
2022/06/27 00:25:30;;;;;;;13.95;11.43;;;;;;;21.66;94.77;99573.69;5061117;28;20868;-57
2022/06/27 00:27:57;;;;;;;12.77;10.80;;;;;;;21.64;95.22;99572.88;5071385;28;20429;-57
2022/06/27 00:30:24;;;;;;;14.77;11.63;;;;;;;21.58;95.64;99570.41;5073488;28;20218;-57
2022/06/27 00:32:51;;;;;;;17.50;11.50;;;;;;;21.58;95.84;99586.13;5073130;28;20200;-57
2022/06/27 00:35:18;;;;;;;16.33;12.20;;;;;;;21.57;95.91;99585.25;5073314;28;20203;-57
2022/06/27 00:37:46;;;;;;;14.13;12.10;;;;;;;21.57;96.21;99585.25;5072441;28;20434;-57
2022/06/27 00:40:14;;;;;;;13.37;11.97;;;;;;;21.57;96.12;99589.63;5073323;28;20200;-57
2022/06/27 00:42:41;;;;;;;13.33;12.07;;;;;;;21.56;95.73;99580.91;5072963;28;20195;-58
2022/06/27 00:45:09;;;;;;;14.73;11.90;;;;;;;21.58;96.15;99591.34;5072811;28;20230;-57
2022/06/27 00:47:36;;;;;;;15.20;11.80;;;;;;;21.57;95.73;99589.63;5073010;28;20223;-57
2022/06/27 00:50:03;;;;;;;13.20;11.67;;;;;;;21.57;95.71;99584.38;5067989;28;20200;-67
2022/06/27 00:52:30;;;;;;;13.60;11.30;;;;;;;21.51;95.93;99585.41;5064127;28;20203;-67
2022/06/27 00:54:58;;;;;;;13.50;12.10;;;;;;;21.43;96.33;99582.13;5071674;28;20430;-67
2022/06/27 00:57:25;;;;;;;13.93;11.43;;;;;;;21.16;96.68;99575.88;5068509;28;20438;-67
2022/06/27 00:59:52;;;;;;;16.87;11.23;;;;;;;21.03;97.72;99586.63;5072923;28;20191;-69
2022/06/27 01:02:19;;;;;;;14.30;11.07;;;;;;;20.92;98.94;99588.66;5072713;28;20232;-67
2022/06/27 01:04:46;;;;;;;13.40;12.00;;;;;;;20.75;99.50;99583.81;5071052;28;20191;-67
2022/06/27 01:07:13;;;;;;;14.73;11.27;;;;;;;20.64;100.00;99592.78;5052486;28;20192;-67
2022/06/27 01:09:41;;;;;;;14.50;11.83;;;;;;;20.42;100.00;99593.28;5055946;28;20189;-67
2022/06/27 01:12:10;;;;;;;11.83;10.70;;;;;;;20.40;100.00;99596.81;5065591;28;20654;-66
2022/06/27 01:14:37;;;;;;;13.17;11.67;;;;;;;20.16;100.00;99582.50;5060169;28;20551;-67
2022/06/27 01:17:05;;;;;;;13.07;11.73;;;;;;;20.34;100.00;99600.41;5070903;28;20662;-67
2022/06/27 01:19:32;;;;;;;13.80;12.43;;;;;;;20.29;100.00;99598.81;5072121;28;20195;-67
2022/06/27 01:21:59;;;;;;;15.38;13.65;;;;;;;20.35;100.00;99596.06;5071019;28;20923;-67
2022/06/27 01:24:28;;;;;;;16.23;11.97;;;;;;;20.44;100.00;99599.31;5072675;28;20245;-67
2022/06/27 01:26:55;;;;;;;17.23;13.40;;;;;;;20.56;100.00;99593.84;5072857;28;20554;-67
2022/06/27 01:29:22;;;;;;;13.77;12.47;;;;;;;20.46;100.00;99597.53;5072322;28;20215;-67
2022/06/27 01:31:50;;;;;;;15.70;13.77;;;;;;;20.51;100.00;99594.84;5072626;28;20218;-68
2022/06/27 01:34:18;;;;;;;14.10;12.63;;;;;;;20.58;100.00;99601.63;5072421;28;20215;-68
2022/06/27 01:36:46;;;;;;;18.70;12.50;;;;;;;20.57;100.00;99584.25;5072445;28;20223;-68
2022/06/27 01:39:15;;;;;;;20.90;15.67;;;;;;;20.62;100.00;99605.91;5070485;28;20192;-68
2022/06/27 01:41:45;;;;;;;19.47;14.17;;;;;;;20.67;100.00;99604.03;5052157;28;20203;-67
2022/06/27 01:44:13;;;;;;;13.63;12.23;;;;;;;20.73;100.00;99608.25;5051868;28;20231;-67
2022/06/27 01:46:42;;;;;;;16.50;12.13;;;;;;;20.58;100.00;99581.59;5051857;28;20458;-67
2022/06/27 01:49:09;;;;;;;15.33;12.10;;;;;;;20.78;100.00;99606.41;5051941;28;20224;-67
2022/06/27 01:51:36;;;;;;;16.87;12.77;;;;;;;20.69;100.00;99606.59;5051896;28;20614;-67
2022/06/27 01:54:04;;;;;;;19.93;13.90;;;;;;;20.71;100.00;99591.78;5051767;28;20291;-68
2022/06/27 01:56:31;;;;;;;22.80;15.50;;;;;;;20.67;100.00;99596.19;5051553;28;20431;-68
2022/06/27 01:58:59;;;;;;;23.20;15.47;;;;;;;20.67;100.00;99590.13;5051988;28;20193;-67
2022/06/27 02:01:27;;;;;;;20.70;15.40;;;;;;;20.70;100.00;99590.91;5051842;28;20196;-67
2022/06/27 02:03:55;;;;;;;19.57;14.33;;;;;;;20.72;100.00;99583.03;5051785;28;20231;-67
2022/06/27 02:06:22;;;;;;;14.90;13.17;;;;;;;20.60;100.00;99561.53;5051989;28;20203;-67
2022/06/27 02:08:52;;;;;;;17.53;13.23;;;;;;;20.77;100.00;99589.84;5051362;28;20216;-67
2022/06/27 02:11:20;;;;;;;17.33;13.20;;;;;;;20.78;99.83;99588.97;5051403;28;20504;-68
2022/06/27 02:13:47;;;;;;;17.10;12.20;;;;;;;20.81;99.68;99586.28;5051430;28;20446;-67
2022/06/27 02:16:17;;;;;;;18.97;11.77;;;;;;;20.85;99.27;99592.31;5051487;28;20677;-67
2022/06/27 02:18:45;;;;;;;20.67;14.00;;;;;;;20.84;99.10;99595.81;5051438;28;20347;-67
2022/06/27 02:21:13;;;;;;;17.98;14.35;;;;;;;20.85;99.10;99602.75;5051669;28;20404;-67
2022/06/27 02:23:41;;;;;;;19.13;14.67;;;;;;;20.85;99.06;99595.75;5051605;28;20199;-67
2022/06/27 02:26:10;;;;;;;16.70;15.00;;;;;;;20.84;99.34;99608.88;5051636;28;20207;-67
2022/06/27 02:28:37;;;;;;;21.10;14.33;;;;;;;20.83;99.20;99604.53;5051170;28;20216;-67
2022/06/27 02:31:05;;;;;;;17.37;14.80;;;;;;;20.74;99.46;99597.75;5050360;28;20192;-67
2022/06/27 02:33:37;;;;;;;21.57;16.23;;;;;;;20.85;99.27;99605.38;5051346;28;20188;-67
2022/06/27 02:36:07;;;;;;;19.37;15.80;;;;;;;20.81;99.07;99606.31;5051041;28;20199;-67
2022/06/27 02:38:34;;;;;;;19.63;16.47;;;;;;;20.81;99.25;99611.56;5051214;28;20204;-67
2022/06/27 02:41:05;;;;;;;21.57;17.40;;;;;;;20.86;99.26;99609.69;5050871;28;20599;-67
2022/06/27 02:43:34;;;;;;;21.50;17.87;;;;;;;20.85;99.32;99614.03;5050852;28;20196;-67
2022/06/27 02:46:01;;;;;;;20.43;17.47;;;;;;;20.89;99.19;99614.84;5050868;28;20261;-67
2022/06/27 02:48:32;;;;;;;18.77;16.17;;;;;;;20.82;98.95;99598.44;5058430;28;20207;-67
2022/06/27 02:51:05;;;;;;;19.30;17.30;;;;;;;20.87;99.10;99614.88;5071102;28;20214;-67
2022/06/27 02:53:35;;;;;;;19.63;15.67;;;;;;;20.73;99.39;99618.72;5070819;28;20192;-67
2022/06/27 02:56:06;;;;;;;22.00;16.93;;;;;;;20.72;99.24;99615.22;5070523;28;20665;-67
2022/06/27 02:58:42;;;;;;;21.07;14.77;;;;;;;20.74;99.62;99613.44;5071032;28;20643;-67
2022/06/27 03:01:10;;;;;;;19.42;15.20;;;;;;;20.82;98.95;99618.50;5070547;28;20485;-67
2022/06/27 03:03:41;;;;;;;16.90;12.70;;;;;;;20.92;98.07;99613.03;5070448;28;20206;-67
2022/06/27 03:06:10;;;;;;;13.40;11.60;;;;;;;21.15;96.57;99623.78;5070620;28;20203;-67
2022/06/27 03:08:39;;;;;;;13.03;11.70;;;;;;;21.31;94.71;99618.22;5069581;28;20215;-67
2022/06/27 03:11:06;;;;;;;16.10;12.70;;;;;;;21.39;93.92;99627.56;5070171;28;20453;-66
2022/06/27 03:13:34;;;;;;;16.03;11.97;;;;;;;21.56;93.13;99621.91;5070371;28;20653;-67
2022/06/27 03:16:01;;;;;;;14.30;11.70;;;;;;;21.72;92.14;99628.44;5070380;28;20668;-67
2022/06/27 03:18:28;;;;;;;14.87;12.23;;;;;;;21.81;91.69;99632.59;5070442;28;20639;-67
2022/06/27 03:20:55;;;;;;;14.50;10.43;;;;;;;21.75;91.82;99623.97;5070589;28;20662;-67
2022/06/27 03:23:23;;;;;;;18.13;12.30;;;;;;;21.78;92.08;99630.91;5070237;28;20187;-69
2022/06/27 03:25:50;;;;;;;15.52;12.10;;;;;;;21.83;91.46;99630.78;5070443;28;20440;-67
2022/06/27 03:28:17;;;;;;;19.47;12.70;;;;;;;21.85;91.57;99636.81;5070202;28;20219;-68
2022/06/27 03:30:44;;;;;;;15.13;11.73;;;;;;;21.88;91.55;99629.78;5070215;28;20202;-68
2022/06/27 03:33:11;;;;;;;20.60;12.57;;;;;;;21.89;91.39;99623.66;5070305;28;20200;-67
2022/06/27 03:35:38;;;;;;;19.40;13.60;;;;;;;21.96;91.26;99624.34;5070497;28;20391;-67
2022/06/27 03:38:05;;;;;;;17.73;14.30;;;;;;;21.99;90.68;99626.88;5070506;28;20199;-67
2022/06/27 03:40:34;;;;;;;25.57;20.27;;;;;;;21.97;90.55;99626.06;5070267;28;20196;-68
2022/06/27 03:43:01;;;;;;;27.83;22.53;;;;;;;22.03;91.13;99628.50;5070152;28;20650;-67
2022/06/27 03:45:27;;;;;;;27.47;24.33;;;;;;;22.08;90.77;99635.34;5070421;28;20231;-68
2022/06/27 03:47:57;;;;;;;26.27;22.63;;;;;;;22.07;90.60;99632.75;5070259;28;20199;-67
2022/06/27 03:50:24;;;;;;;21.13;18.93;;;;;;;22.10;90.62;99632.66;5070288;28;20662;-67
2022/06/27 03:52:52;;;;;;;19.07;16.20;;;;;;;21.98;90.53;99605.06;5069832;28;20696;-67
2022/06/27 03:55:19;;;;;;;15.70;14.07;;;;;;;22.15;90.75;99630.75;5069918;28;20187;-67
2022/06/27 03:57:52;;;;;;;14.93;13.43;;;;;;;22.13;90.69;99628.19;5070207;28;20210;-67
2022/06/27 04:00:21;;;;;;;20.77;13.00;;;;;;;22.16;90.67;99627.25;5069977;28;20192;-67
2022/06/27 04:02:48;;;;;;;14.40;12.93;;;;;;;22.11;90.24;99629.97;5070238;28;20197;-67
2022/06/27 04:05:15;;;;;;;22.43;13.70;;;;;;;22.15;89.94;99631.63;5070019;28;20274;-67
2022/06/27 04:07:42;;;;;;;17.03;13.63;;;;;;;22.15;89.71;99638.63;5070361;28;20196;-67
2022/06/27 04:10:09;;;;;;;14.67;13.07;;;;;;;22.10;89.87;99638.75;5070246;28;20203;-67
2022/06/27 04:12:37;;;;;;;15.27;11.77;;;;;;;22.19;89.68;99642.88;5070094;28;20218;-68
2022/06/27 04:15:08;;;;;;;14.03;12.70;;;;;;;22.10;89.25;99628.28;5070101;28;20196;-67
2022/06/27 04:17:35;;;;;;;15.27;13.83;;;;;;;22.24;89.19;99631.38;5069474;28;20192;-67
2022/06/27 04:20:02;;;;;;;15.07;12.77;;;;;;;22.31;88.82;99646.00;5070035;28;20295;-67
2022/06/27 04:22:29;;;;;;;21.63;14.13;;;;;;;22.36;88.73;99640.59;5052162;28;20196;-67
2022/06/27 04:24:57;;;;;;;15.50;13.70;;;;;;;22.38;88.56;99641.44;5049752;28;20192;-67
2022/06/27 04:27:24;;;;;;;19.30;14.23;;;;;;;22.37;88.09;99647.56;5060462;28;20210;-67
2022/06/27 04:29:51;;;;;;;19.77;13.43;;;;;;;22.29;88.32;99646.94;5069753;28;20227;-67
2022/06/27 04:32:22;;;;;;;14.73;13.07;;;;;;;22.30;87.66;99646.88;5069430;28;20195;-67
2022/06/27 04:34:49;;;;;;;17.73;13.73;;;;;;;22.33;87.10;99651.19;5067246;28;20205;-67
2022/06/27 04:37:17;;;;;;;15.57;13.70;;;;;;;22.29;88.12;99644.31;5049869;28;20200;-67
2022/06/27 04:39:44;;;;;;;15.47;13.67;;;;;;;22.34;86.54;99647.66;5049560;28;20279;-67
2022/06/27 04:42:11;;;;;;;18.00;15.20;;;;;;;22.32;86.76;99652.09;5049475;28;20212;-67
2022/06/27 04:44:40;;;;;;;20.60;14.90;;;;;;;22.39;87.38;99653.59;5049397;28;20228;-67
2022/06/27 04:47:08;;;;;;;20.73;15.60;;;;;;;22.34;87.15;99659.00;5049726;28;20202;-67
2022/06/27 04:49:37;;;;;;;17.60;14.93;;;;;;;22.39;86.18;99655.41;5049689;28;20224;-67
2022/06/27 04:52:06;;;;;;;21.40;14.83;;;;;;;22.30;87.17;99656.50;5049961;28;20204;-67
2022/06/27 04:54:33;;;;;;;15.97;14.13;;;;;;;22.33;85.75;99657.25;5051309;28;20204;-67
2022/06/27 04:57:00;;;;;;;23.13;14.40;;;;;;;22.17;86.43;99658.59;5053136;28;20610;-68
2022/06/27 04:59:27;;;;;;;26.27;14.17;;;;;;;22.16;86.84;99645.56;5052968;28;20218;-67
2022/06/27 05:01:54;;;;;;;14.33;12.87;;;;;;;22.24;85.38;99635.75;5053136;28;20275;-68
2022/06/27 05:04:21;;;;;;;15.93;13.07;;;;;;;22.50;84.98;99659.41;5052753;28;20449;-68
2022/06/27 05:06:51;;;;;;;24.83;11.97;;;;;;;22.59;82.79;99653.03;5052787;28;20188;-68
2022/06/27 05:09:18;;;;;;;16.80;11.37;;;;;;;22.57;81.92;99652.22;5052778;28;20220;-68
2022/06/27 05:11:45;;;;;;;14.40;10.60;;;;;;;22.64;81.40;99657.25;5052623;28;20189;-68
2022/06/27 05:14:12;;;;;;;10.83;9.73;;;;;;;22.65;81.20;99661.59;5052569;28;20196;-68
2022/06/27 05:16:39;;;;;;;11.40;10.30;;;;;;;22.66;80.64;99660.69;5052786;28;20203;-68
2022/06/27 05:19:06;;;;;;;13.55;10.13;;;;;;;22.69;81.03;99657.97;5052647;28;20435;-68
2022/06/27 05:21:33;;;;;;;12.70;10.60;;;;;;;22.79;81.24;99659.44;5052340;28;20200;-68
2022/06/27 05:24:02;;;;;;;11.07;9.93;;;;;;;22.84;81.08;99654.03;5052410;28;20195;-68
2022/06/27 05:26:29;;;;;;;11.10;9.67;;;;;;;22.90;80.71;99659.97;5066161;28;20199;-68
2022/06/27 05:28:56;;;;;;;12.15;10.98;;;;;;;22.98;80.47;99661.47;5071083;28;20541;-68
2022/06/27 05:31:23;;;;;;;19.40;10.33;;;;;;;23.09;80.39;99667.22;5071039;28;20192;-68
2022/06/27 05:33:50;;;;;;;11.53;10.33;;;;;;;23.20;80.36;99663.38;5064712;28;20690;-68
2022/06/27 05:36:17;;;;;;;10.47;9.13;;;;;;;23.35;79.47;99675.09;5071493;28;20191;-68
2022/06/27 05:38:44;;;;;;;12.37;10.07;;;;;;;23.41;78.76;99662.69;5071433;28;20539;-68
2022/06/27 05:41:12;;;;;;;9.53;8.57;;;;;;;23.47;77.78;99659.88;5071414;28;20184;-68
2022/06/27 05:43:40;;;;;;;11.32;9.45;;;;;;;23.41;77.78;99659.22;5069972;28;20454;-69
2022/06/27 05:46:08;;;;;;;9.47;8.63;;;;;;;23.44;77.56;99653.84;5068179;28;20282;-68
2022/06/27 05:48:37;;;;;;;10.63;8.90;;;;;;;23.54;78.42;99646.56;5071776;28;20259;-70
2022/06/27 05:51:04;;;;;;;9.33;8.30;;;;;;;23.62;78.06;99650.63;5070944;28;20187;-68
2022/06/27 05:53:32;;;;;;;12.27;9.77;;;;;;;23.67;77.55;99646.09;5071063;28;20230;-67
2022/06/27 05:56:00;;;;;;;9.83;8.83;;;;;;;23.73;77.94;99659.00;5070490;28;20979;-67
2022/06/27 05:58:28;;;;;;;12.30;9.52;;;;;;;23.74;78.28;99658.06;5066632;28;20446;-67
2022/06/27 06:00:55;;;;;;;9.20;8.27;;;;;;;23.95;77.40;99665.19;5068180;28;20219;-67
2022/06/27 06:03:22;;;;;;;10.40;8.80;;;;;;;23.95;77.03;99662.56;5071194;28;20195;-68
2022/06/27 06:05:49;;;;;;;12.27;8.60;;;;;;;24.10;77.11;99673.47;5071094;28;20202;-68
2022/06/27 06:08:16;;;;;;;11.87;8.40;;;;;;;24.12;76.49;99674.28;5071720;28;20226;-68
2022/06/27 06:10:43;;;;;;;11.55;8.15;;;;;;;24.13;76.18;99662.84;5071086;28;20456;-67
2022/06/27 06:13:10;;;;;;;9.30;8.40;;;;;;;24.26;75.96;99669.38;5071280;28;20196;-66
2022/06/27 06:15:38;;;;;;;9.83;8.57;;;;;;;24.37;75.57;99662.81;5071582;28;20578;-66
2022/06/27 06:18:05;;;;;;;8.53;7.63;;;;;;;24.48;75.19;99660.66;5071295;28;20648;-67
2022/06/27 06:20:32;;;;;;;8.50;7.23;;;;;;;24.62;74.64;99654.88;5068783;28;20367;-66
2022/06/27 06:22:59;;;;;;;8.52;7.72;;;;;;;24.66;72.30;99653.84;5070325;28;20921;-67
2022/06/27 06:25:26;;;;;;;9.37;7.47;;;;;;;24.67;71.55;99666.06;5071018;28;20685;-65
2022/06/27 06:27:56;;;;;;;9.17;6.47;;;;;;;24.58;72.22;99663.78;5070893;28;20700;-65
2022/06/27 06:30:23;;;;;;;7.97;7.17;;;;;;;24.66;71.58;99667.00;5070984;28;20278;-66
2022/06/27 06:32:52;;;;;;;8.17;7.37;;;;;;;24.75;71.63;99656.09;5069962;28;20196;-67
2022/06/27 06:35:19;;;;;;;7.82;7.10;;;;;;;24.83;70.77;99661.94;5066153;28;20451;-66
2022/06/27 06:37:46;;;;;;;9.07;6.60;;;;;;;24.88;69.13;99660.03;5065818;28;20196;-66
2022/06/27 06:40:14;;;;;;;7.83;6.80;;;;;;;25.00;68.71;99667.41;5065521;28;20191;-66
2022/06/27 06:42:45;;;;;;;13.97;7.27;;;;;;;25.10;68.83;99660.88;5069638;28;20257;-67
2022/06/27 06:45:12;;;;;;;9.10;6.57;;;;;;;25.12;68.11;99671.31;5067209;28;20215;-67
2022/06/27 06:47:44;;;;;;;7.60;6.22;;;;;;;25.16;66.92;99659.78;5068095;28;20920;-66
2022/06/27 06:50:15;;;;;;;10.00;6.03;;;;;;;25.06;66.96;99642.63;5069259;28;20301;-66
2022/06/27 06:52:42;;;;;;;7.33;6.70;;;;;;;25.10;67.24;99663.50;5070073;28;20192;-66
2022/06/27 06:55:11;;;;;;;7.40;6.60;;;;;;;25.15;67.18;99663.31;5070087;28;20191;-66
2022/06/27 06:57:39;;;;;;;6.90;6.20;;;;;;;25.00;66.80;99635.00;5070285;28;20187;-67
2022/06/27 07:00:08;;;;;;;8.33;6.33;;;;;;;25.14;67.45;99678.22;5070261;28;20191;-66
2022/06/27 07:02:36;;;;;;;6.93;6.23;;;;;;;25.12;67.30;99674.81;5070336;28;20676;-67
2022/06/27 07:05:03;;;;;;;7.67;6.27;;;;;;;25.16;67.18;99667.66;5070293;28;20200;-66
2022/06/27 07:07:34;;;;;;;6.80;6.17;;;;;;;25.21;66.70;99669.19;5070308;28;20187;-66
2022/06/27 07:10:01;;;;;;;7.07;6.47;;;;;;;25.29;66.93;99666.25;5069188;28;20944;-67
2022/06/27 07:12:29;;;;;;;7.30;6.60;;;;;;;25.41;66.92;99675.41;5069225;28;20202;-67
2022/06/27 07:14:57;;;;;;;6.60;5.90;;;;;;;25.53;66.12;99674.94;5069373;28;20645;-67
2022/06/27 07:17:24;;;;;;;6.67;6.07;;;;;;;25.55;65.86;99671.31;5069677;28;20191;-67
2022/06/27 07:19:52;;;;;;;6.80;6.13;;;;;;;25.59;66.00;99675.53;5068718;28;20191;-67
2022/06/27 07:22:20;;;;;;;10.95;6.88;;;;;;;25.63;65.39;99674.47;5069734;28;20448;-67
2022/06/27 07:24:48;;;;;;;6.43;5.93;;;;;;;25.72;63.88;99675.84;5069838;28;20227;-67
2022/06/27 07:27:16;;;;;;;11.95;6.97;;;;;;;25.84;64.85;99675.34;5069824;28;20283;-67
2022/06/27 07:29:43;;;;;;;7.67;5.93;;;;;;;25.90;64.25;99679.50;5069523;28;20298;-66
2022/06/27 07:32:10;;;;;;;6.93;6.25;;;;;;;25.90;63.75;99677.72;5069676;28;20195;-66
2022/06/27 07:34:38;;;;;;;13.57;6.20;;;;;;;25.88;63.42;99683.94;5068739;28;20491;-66
2022/06/27 07:37:05;;;;;;;6.03;5.53;;;;;;;25.88;63.04;99674.28;5069726;28;20668;-67
2022/06/27 07:39:32;;;;;;;10.40;6.72;;;;;;;25.97;63.81;99684.44;5069665;28;20188;-67
2022/06/27 07:42:01;;;;;;;9.00;6.35;;;;;;;26.08;63.86;99686.59;5069701;28;20285;-66
2022/06/27 07:44:29;;;;;;;6.85;6.13;;;;;;;26.10;62.58;99690.88;5069489;28;20535;-66
2022/06/27 07:46:57;;;;;;;8.00;6.20;;;;;;;26.18;63.06;99675.59;5069323;28;20298;-66
2022/06/27 07:49:24;;;;;;;7.68;6.95;;;;;;;26.15;63.23;99685.44;5068070;28;20438;-66
2022/06/27 07:51:51;;;;;;;8.67;6.43;;;;;;;26.19;62.84;99679.97;5069240;28;20191;-66
2022/06/27 07:54:19;;;;;;;7.00;6.40;;;;;;;26.31;61.70;99674.16;5069251;28;20191;-67
2022/06/27 07:56:46;;;;;;;6.75;6.05;;;;;;;26.33;61.18;99674.94;5069358;28;20199;-67
2022/06/27 07:59:15;;;;;;;6.80;6.10;;;;;;;26.50;60.29;99668.91;5068699;28;20495;-66
2022/06/27 08:01:42;;;;;;;6.75;6.20;;;;;;;26.64;60.63;99663.84;5068956;28;20223;-66
2022/06/27 08:04:11;;;;;;;6.30;5.75;;;;;;;26.69;61.17;99661.84;5069014;28;20195;-66
2022/06/27 08:06:39;;;;;;;6.53;5.88;;;;;;;26.73;59.44;99667.81;5068717;28;20286;-67
2022/06/27 08:09:07;;;;;;;9.60;6.35;;;;;;;26.79;59.20;99664.94;5069679;28;20196;-67
2022/06/27 08:11:36;;;;;;;6.00;5.50;;;;;;;26.67;59.45;99658.41;5069209;28;20281;-67
2022/06/27 08:14:07;;;;;;;7.82;6.00;;;;;;;26.82;59.48;99660.38;5068915;28;20236;-67
2022/06/27 08:16:38;;;;;;;7.75;5.80;;;;;;;26.84;58.52;99660.28;5068749;28;20780;-66
2022/06/27 08:19:05;;;;;;;6.13;5.53;;;;;;;26.86;59.06;99659.28;5068817;28;20273;-67
2022/06/27 08:21:34;;;;;;;6.55;5.85;;;;;;;26.94;58.75;99661.59;5069022;28;20187;-66
2022/06/27 08:24:04;;;;;;;6.70;6.10;;;;;;;26.99;58.41;99658.72;5068813;28;20903;-66
2022/06/27 08:26:32;;;;;;;6.50;5.90;;;;;;;27.01;57.59;99662.97;5068853;28;20241;-66
2022/06/27 08:29:00;;;;;;;8.30;6.53;;;;;;;26.96;57.18;99649.16;5069677;28;20313;-57
2022/06/27 08:31:30;;;;;;;6.93;6.13;;;;;;;27.15;57.48;99664.97;5072685;28;20713;-57
2022/06/27 08:34:01;;;;;;;6.72;5.97;;;;;;;27.21;55.69;99664.66;5072427;28;20192;-58
2022/06/27 08:36:30;;;;;;;6.25;5.63;;;;;;;27.11;55.22;99659.00;5072741;28;20202;-57
2022/06/27 08:38:58;;;;;;;8.68;6.10;;;;;;;27.18;56.49;99660.38;5072664;28;20191;-57
2022/06/27 08:41:26;;;;;;;6.70;5.70;;;;;;;27.11;55.44;99651.06;5072086;28;20658;-57
2022/06/27 08:44:00;;;;;;;6.25;5.65;;;;;;;27.20;53.56;99668.22;5072410;28;20219;-57
2022/06/27 08:46:27;;;;;;;6.97;5.88;;;;;;;27.41;53.98;99667.22;5072334;28;20281;-57
2022/06/27 08:48:55;;;;;;;6.35;5.07;;;;;;;27.58;52.40;99669.03;5072351;28;20689;-57
2022/06/27 08:51:24;;;;;;;7.57;5.18;;;;;;;27.57;52.03;99662.00;5072310;28;20226;-57
2022/06/27 08:53:52;;;;;;;9.63;5.63;;;;;;;27.67;51.85;99668.53;5072754;28;20188;-57
2022/06/27 08:56:20;;;;;;;8.18;5.57;;;;;;;27.78;51.33;99668.84;5072423;28;20245;-57
2022/06/27 08:58:48;;;;;;;10.48;5.50;;;;;;;27.71;50.39;99667.47;5072353;28;20191;-58
2022/06/27 09:01:19;;;;;;;5.75;5.22;;;;;;;27.78;50.14;99658.28;5072184;28;20569;-56
2022/06/27 09:03:58;;;;;;;8.35;6.28;;;;;;;27.97;51.13;99656.38;5071513;28;20662;-56
2022/06/27 09:06:27;;;;;;;6.72;5.80;;;;;;;28.05;48.45;99633.09;5071617;28;20588;-57
2022/06/27 09:09:03;;;;;;;5.30;4.80;;;;;;;28.18;47.68;99650.03;5071928;28;20191;-57
2022/06/27 09:11:32;;;;;;;7.72;5.03;;;;;;;28.28;48.53;99655.66;5071909;28;20289;-57
2022/06/27 09:13:59;;;;;;;7.60;6.38;;;;;;;28.31;47.32;99643.16;5072008;28;20196;-57
2022/06/27 09:16:27;;;;;;;6.28;5.68;;;;;;;28.49;46.04;99642.13;5071732;28;20187;-57
2022/06/27 09:18:55;;;;;;;4.85;4.45;;;;;;;28.30;43.84;99637.94;5071646;28;20199;-58
2022/06/27 09:21:22;;;;;;;5.05;4.55;;;;;;;28.05;43.84;99638.38;5071462;28;20211;-57
2022/06/27 09:23:54;;;;;;;6.75;4.57;;;;;;;28.13;44.82;99635.34;5071921;28;20187;-57
2022/06/27 09:26:25;;;;;;;4.68;4.28;;;;;;;28.22;44.43;99635.69;5071674;28;20191;-57
2022/06/27 09:28:54;;;;;;;12.45;5.15;;;;;;;28.27;43.90;99609.88;5071929;28;20273;-59
2022/06/27 09:31:35;;;;;;;5.72;4.55;;;;;;;28.60;44.48;99625.69;5070889;28;20541;-58
2022/06/27 09:34:16;;;;;;;6.53;4.90;;;;;;;28.76;43.30;99631.03;5071644;28;20624;-58
2022/06/27 09:36:46;;;;;;;5.18;4.78;;;;;;;28.77;43.66;99630.94;5071821;28;20253;-58
2022/06/27 09:39:20;;;;;;;4.75;4.03;;;;;;;28.82;41.31;99634.16;5071614;28;20593;-57
2022/06/27 09:41:54;;;;;;;6.13;4.20;;;;;;;28.75;40.48;99640.75;5070068;28;20434;-56
2022/06/27 09:44:24;;;;;;;5.18;4.13;;;;;;;28.96;40.29;99633.38;5071331;28;20227;-56
2022/06/27 09:46:55;;;;;;;5.13;3.97;;;;;;;29.11;40.78;99628.09;5071640;28;20195;-56
2022/06/27 09:49:26;;;;;;;5.78;4.20;;;;;;;29.23;39.90;99629.19;5071343;28;20199;-57
2022/06/27 09:51:54;;;;;;;5.00;4.30;;;;;;;29.12;38.72;99634.22;5071352;28;20251;-57
2022/06/27 09:54:24;;;;;;;4.63;4.22;;;;;;;29.12;39.41;99629.78;5071192;28;20582;-57
2022/06/27 09:56:52;;;;;;;4.57;3.85;;;;;;;29.09;38.12;99632.59;5070016;28;20442;-57
2022/06/27 09:59:20;;;;;;;5.40;4.50;;;;;;;29.24;38.92;99626.47;5071675;28;20191;-57
2022/06/27 10:01:49;;;;;;;4.25;3.83;;;;;;;29.38;37.71;99622.16;5070883;28;20741;-57
2022/06/27 10:04:17;;;;;;;6.15;4.40;;;;;;;29.49;38.04;99623.25;5071323;28;20704;-57
2022/06/27 10:06:44;;;;;;;4.65;4.20;;;;;;;29.47;38.66;99618.97;5070608;28;20445;-57
2022/06/27 10:09:16;;;;;;;4.57;4.10;;;;;;;29.55;38.90;99617.59;5070979;28;20203;-57
2022/06/27 10:11:45;;;;;;;6.95;4.88;;;;;;;29.81;40.29;99614.25;5070517;28;20215;-57
2022/06/27 10:14:15;;;;;;;4.95;4.50;;;;;;;29.79;39.24;99616.16;5070365;28;20187;-58
2022/06/27 10:16:52;;;;;;;5.25;4.65;;;;;;;29.86;39.65;99621.09;5070508;28;20659;-58
2022/06/27 10:19:20;;;;;;;5.03;4.63;;;;;;;29.71;39.09;99615.72;5070222;28;20276;-57
2022/06/27 10:21:48;;;;;;;5.20;4.70;;;;;;;29.64;39.36;99585.22;5069409;28;20919;-56
2022/06/27 10:24:35;;;;;;;5.95;4.72;;;;;;;29.77;38.98;99606.56;5070174;28;20195;-57
2022/06/27 10:27:08;;;;;;;4.88;4.47;;;;;;;29.90;38.45;99601.38;5070559;28;20199;-57
2022/06/27 10:29:44;;;;;;;5.88;5.25;;;;;;;29.94;39.06;99598.47;5070163;28;20199;-57
2022/06/27 10:32:47;;;;;;;5.25;4.85;;;;;;;29.95;38.36;99605.44;5070089;28;20621;-58
2022/06/27 10:35:18;;;;;;;5.55;4.70;;;;;;;30.04;38.85;99598.75;5070364;28;20253;-57
2022/06/27 10:37:46;;;;;;;5.38;3.90;;;;;;;30.02;36.60;99606.81;5070286;28;20199;-57
2022/06/27 10:40:55;;;;;;;4.53;4.10;;;;;;;30.05;36.52;99600.47;5069996;28;20198;-57
2022/06/27 10:43:48;;;;;;;4.68;3.90;;;;;;;29.98;36.33;99593.81;5070526;28;20202;-57
2022/06/27 10:46:43;;;;;;;5.63;4.22;;;;;;;30.09;37.17;99594.00;5055575;28;20441;-57
2022/06/27 10:49:21;;;;;;;4.82;4.47;;;;;;;30.01;36.73;99540.63;5070291;28;20191;-57
2022/06/27 10:51:48;;;;;;;4.30;3.90;;;;;;;30.43;36.06;99591.00;5069395;28;20215;-57
2022/06/27 10:54:16;;;;;;;4.47;4.07;;;;;;;30.48;35.94;99585.38;5070338;28;20195;-57
2022/06/27 10:56:45;;;;;;;4.60;4.20;;;;;;;30.46;36.48;99587.28;5070415;28;20580;-57
2022/06/27 11:00:00;;;;;;;4.47;4.07;;;;;;;30.28;36.28;99576.00;5070252;28;20195;-57
2022/06/27 11:02:33;;;;;;;9.25;4.93;;;;;;;30.46;36.77;99582.84;5070194;28;20187;-57
2022/06/27 11:05:01;;;;;;;6.32;5.63;;;;;;;30.81;37.17;99577.91;5070112;28;20196;-57
2022/06/27 11:07:28;;;;;;;5.32;4.82;;;;;;;31.10;36.51;99576.00;5070124;28;20515;-57
2022/06/27 11:09:55;;;;;;;6.32;4.80;;;;;;;31.32;35.81;99573.59;5070254;28;20195;-57
2022/06/27 11:12:28;;;;;;;7.75;4.60;;;;;;;31.43;36.16;99568.41;5069344;28;20445;-57
2022/06/27 11:14:57;;;;;;;4.72;3.53;;;;;;;31.35;33.81;99565.44;5070067;28;20277;-57
2022/06/27 11:17:34;;;;;;;5.38;3.60;;;;;;;31.05;34.55;99556.88;5070429;28;20695;-57
2022/06/27 11:20:17;;;;;;;4.35;3.92;;;;;;;31.06;34.24;99550.63;5069692;28;20271;-57
2022/06/27 11:22:45;;;;;;;4.68;4.28;;;;;;;31.02;34.83;99551.78;5069601;28;20192;-57
2022/06/27 11:25:13;;;;;;;4.40;4.03;;;;;;;31.13;34.11;99552.75;5069713;28;20206;-57
2022/06/27 11:27:54;;;;;;;5.00;4.18;;;;;;;31.22;34.24;99545.97;5069933;28;20676;-57
2022/06/27 11:33:21;;;;;;;4.22;3.88;;;;;;;31.78;33.82;99550.09;5069836;28;20191;-57
2022/06/27 11:35:50;;;;;;;5.20;4.72;;;;;;;31.97;33.71;99554.03;5069906;28;20195;-57